sensor_id;sensor_type;location;lat;lon;timestamp;P1;durP1;ratioP1;P2;durP2;ratioP2
65150;SDS011;51918;51.856;0.150;2022-10-16T00:03:06;7.30;;;1.70;;
65150;SDS011;51918;51.856;0.150;2022-10-16T00:08:07;12.73;;;1.48;;
65150;SDS011;51918;51.856;0.150;2022-10-16T00:13:09;11.32;;;1.77;;
65150;SDS011;51918;51.856;0.150;2022-10-16T00:18:11;14.05;;;2.08;;
65150;SDS011;51918;51.856;0.150;2022-10-16T00:23:12;13.48;;;2.17;;
65150;SDS011;51918;51.856;0.150;2022-10-16T00:28:12;10.05;;;1.77;;
65150;SDS011;51918;51.856;0.150;2022-10-16T00:33:14;10.60;;;1.60;;
65150;SDS011;51918;51.856;0.150;2022-10-16T00:38:15;10.73;;;2.13;;
65150;SDS011;51918;51.856;0.150;2022-10-16T00:48:38;15.38;;;1.98;;
65150;SDS011;51918;51.856;0.150;2022-10-16T00:53:38;9.18;;;1.35;;
65150;SDS011;51918;51.856;0.150;2022-10-16T00:58:39;6.55;;;1.35;;
65150;SDS011;51918;51.856;0.150;2022-10-16T01:03:41;8.93;;;1.35;;
65150;SDS011;51918;51.856;0.150;2022-10-16T01:08:44;8.13;;;1.77;;
65150;SDS011;51918;51.856;0.150;2022-10-16T01:13:53;8.02;;;1.40;;
65150;SDS011;51918;51.856;0.150;2022-10-16T01:18:59;6.43;;;1.20;;
65150;SDS011;51918;51.856;0.150;2022-10-16T01:24:06;8.90;;;1.40;;
65150;SDS011;51918;51.856;0.150;2022-10-16T01:29:15;7.75;;;1.48;;
65150;SDS011;51918;51.856;0.150;2022-10-16T01:34:20;9.25;;;2.42;;
65150;SDS011;51918;51.856;0.150;2022-10-16T01:39:26;9.57;;;1.50;;
65150;SDS011;51918;51.856;0.150;2022-10-16T01:44:32;13.40;;;2.65;;
65150;SDS011;51918;51.856;0.150;2022-10-16T01:49:35;12.07;;;1.83;;
65150;SDS011;51918;51.856;0.150;2022-10-16T01:54:39;12.25;;;2.22;;
65150;SDS011;51918;51.856;0.150;2022-10-16T01:59:45;9.10;;;2.15;;
65150;SDS011;51918;51.856;0.150;2022-10-16T02:04:49;8.15;;;1.33;;
65150;SDS011;51918;51.856;0.150;2022-10-16T02:09:55;12.15;;;1.75;;
65150;SDS011;51918;51.856;0.150;2022-10-16T02:14:57;10.93;;;1.98;;
65150;SDS011;51918;51.856;0.150;2022-10-16T02:19:57;7.65;;;2.22;;
65150;SDS011;51918;51.856;0.150;2022-10-16T02:25:01;14.50;;;1.98;;
65150;SDS011;51918;51.856;0.150;2022-10-16T02:30:08;8.95;;;1.13;;
65150;SDS011;51918;51.856;0.150;2022-10-16T02:35:14;10.38;;;1.55;;
65150;SDS011;51918;51.856;0.150;2022-10-16T02:40:17;9.85;;;1.65;;
65150;SDS011;51918;51.856;0.150;2022-10-16T02:45:20;10.65;;;1.40;;
65150;SDS011;51918;51.856;0.150;2022-10-16T02:50:21;8.00;;;1.50;;
65150;SDS011;51918;51.856;0.150;2022-10-16T02:55:22;9.90;;;1.45;;
65150;SDS011;51918;51.856;0.150;2022-10-16T03:00:26;7.43;;;1.40;;
65150;SDS011;51918;51.856;0.150;2022-10-16T03:05:27;12.55;;;2.85;;
65150;SDS011;51918;51.856;0.150;2022-10-16T03:10:27;6.93;;;1.25;;
65150;SDS011;51918;51.856;0.150;2022-10-16T03:15:29;6.50;;;1.70;;
65150;SDS011;51918;51.856;0.150;2022-10-16T03:20:30;9.02;;;1.40;;
65150;SDS011;51918;51.856;0.150;2022-10-16T03:25:31;13.45;;;1.80;;
65150;SDS011;51918;51.856;0.150;2022-10-16T03:30:33;8.38;;;1.30;;
65150;SDS011;51918;51.856;0.150;2022-10-16T03:35:33;9.73;;;1.20;;
65150;SDS011;51918;51.856;0.150;2022-10-16T03:40:34;8.82;;;1.40;;
65150;SDS011;51918;51.856;0.150;2022-10-16T03:45:36;8.88;;;1.48;;
65150;SDS011;51918;51.856;0.150;2022-10-16T03:50:36;7.53;;;1.70;;
65150;SDS011;51918;51.856;0.150;2022-10-16T03:55:37;14.73;;;2.95;;
65150;SDS011;51918;51.856;0.150;2022-10-16T04:00:41;10.00;;;1.42;;
65150;SDS011;51918;51.856;0.150;2022-10-16T04:05:42;6.55;;;1.48;;
65150;SDS011;51918;51.856;0.150;2022-10-16T04:10:42;3.83;;;1.50;;
65150;SDS011;51918;51.856;0.150;2022-10-16T04:15:45;6.07;;;0.88;;
65150;SDS011;51918;51.856;0.150;2022-10-16T04:20:46;7.03;;;0.90;;
65150;SDS011;51918;51.856;0.150;2022-10-16T04:25:46;5.82;;;1.08;;
65150;SDS011;51918;51.856;0.150;2022-10-16T04:30:48;5.25;;;1.13;;
65150;SDS011;51918;51.856;0.150;2022-10-16T04:35:55;6.70;;;1.02;;
65150;SDS011;51918;51.856;0.150;2022-10-16T04:40:56;4.72;;;0.88;;
65150;SDS011;51918;51.856;0.150;2022-10-16T04:45:58;10.52;;;1.98;;
65150;SDS011;51918;51.856;0.150;2022-10-16T04:50:59;5.60;;;1.13;;
65150;SDS011;51918;51.856;0.150;2022-10-16T04:56:00;8.40;;;1.20;;
65150;SDS011;51918;51.856;0.150;2022-10-16T05:01:02;5.63;;;0.90;;
65150;SDS011;51918;51.856;0.150;2022-10-16T05:06:04;9.43;;;1.38;;
65150;SDS011;51918;51.856;0.150;2022-10-16T05:11:05;7.22;;;1.20;;
65150;SDS011;51918;51.856;0.150;2022-10-16T05:16:07;7.68;;;1.42;;
65150;SDS011;51918;51.856;0.150;2022-10-16T05:21:08;7.32;;;1.00;;
65150;SDS011;51918;51.856;0.150;2022-10-16T05:26:08;3.03;;;0.93;;
65150;SDS011;51918;51.856;0.150;2022-10-16T05:31:10;5.82;;;1.20;;
65150;SDS011;51918;51.856;0.150;2022-10-16T05:36:11;12.10;;;1.30;;
65150;SDS011;51918;51.856;0.150;2022-10-16T05:41:11;14.88;;;2.75;;
65150;SDS011;51918;51.856;0.150;2022-10-16T05:46:13;8.15;;;1.52;;
65150;SDS011;51918;51.856;0.150;2022-10-16T05:51:15;8.00;;;1.20;;
65150;SDS011;51918;51.856;0.150;2022-10-16T05:56:15;5.05;;;1.02;;
65150;SDS011;51918;51.856;0.150;2022-10-16T06:01:18;7.18;;;1.25;;
65150;SDS011;51918;51.856;0.150;2022-10-16T06:06:19;7.22;;;1.33;;
65150;SDS011;51918;51.856;0.150;2022-10-16T06:11:22;9.48;;;1.48;;
65150;SDS011;51918;51.856;0.150;2022-10-16T06:16:25;7.45;;;1.45;;
65150;SDS011;51918;51.856;0.150;2022-10-16T06:21:26;5.97;;;1.30;;
65150;SDS011;51918;51.856;0.150;2022-10-16T06:26:29;4.78;;;1.10;;
65150;SDS011;51918;51.856;0.150;2022-10-16T06:31:32;12.80;;;1.70;;
65150;SDS011;51918;51.856;0.150;2022-10-16T06:36:32;7.35;;;1.20;;
65150;SDS011;51918;51.856;0.150;2022-10-16T06:41:33;8.60;;;1.35;;
65150;SDS011;51918;51.856;0.150;2022-10-16T06:46:35;9.43;;;1.70;;
65150;SDS011;51918;51.856;0.150;2022-10-16T06:51:36;8.13;;;1.13;;
65150;SDS011;51918;51.856;0.150;2022-10-16T06:56:36;6.07;;;1.38;;
65150;SDS011;51918;51.856;0.150;2022-10-16T07:01:38;9.77;;;1.40;;
65150;SDS011;51918;51.856;0.150;2022-10-16T07:06:39;8.32;;;1.00;;
65150;SDS011;51918;51.856;0.150;2022-10-16T07:11:40;6.70;;;1.02;;
65150;SDS011;51918;51.856;0.150;2022-10-16T07:16:42;5.85;;;1.13;;
65150;SDS011;51918;51.856;0.150;2022-10-16T07:21:43;4.50;;;1.90;;
65150;SDS011;51918;51.856;0.150;2022-10-16T07:26:44;10.27;;;1.27;;
65150;SDS011;51918;51.856;0.150;2022-10-16T07:31:47;8.80;;;1.23;;
65150;SDS011;51918;51.856;0.150;2022-10-16T07:36:48;11.05;;;1.40;;
65150;SDS011;51918;51.856;0.150;2022-10-16T07:41:49;6.90;;;1.52;;
65150;SDS011;51918;51.856;0.150;2022-10-16T07:46:51;10.02;;;1.25;;
65150;SDS011;51918;51.856;0.150;2022-10-16T07:51:52;9.52;;;1.38;;
65150;SDS011;51918;51.856;0.150;2022-10-16T07:56:52;5.82;;;1.10;;
65150;SDS011;51918;51.856;0.150;2022-10-16T08:01:54;8.93;;;1.15;;
65150;SDS011;51918;51.856;0.150;2022-10-16T08:06:55;7.22;;;1.40;;
65150;SDS011;51918;51.856;0.150;2022-10-16T08:11:55;10.50;;;1.40;;
65150;SDS011;51918;51.856;0.150;2022-10-16T08:16:57;6.57;;;0.98;;
65150;SDS011;51918;51.856;0.150;2022-10-16T08:21:58;7.32;;;1.30;;
65150;SDS011;51918;51.856;0.150;2022-10-16T08:26:58;7.07;;;1.65;;
65150;SDS011;51918;51.856;0.150;2022-10-16T08:32:00;10.68;;;1.52;;
65150;SDS011;51918;51.856;0.150;2022-10-16T08:37:01;5.65;;;1.27;;
65150;SDS011;51918;51.856;0.150;2022-10-16T08:42:04;12.10;;;2.50;;
65150;SDS011;51918;51.856;0.150;2022-10-16T08:47:19;6.25;;;1.60;;
65150;SDS011;51918;51.856;0.150;2022-10-16T08:52:24;5.68;;;0.88;;
65150;SDS011;51918;51.856;0.150;2022-10-16T08:57:29;6.05;;;1.48;;
65150;SDS011;51918;51.856;0.150;2022-10-16T09:07:35;6.00;;;1.00;;
65150;SDS011;51918;51.856;0.150;2022-10-16T09:12:48;4.40;;;1.40;;
65150;SDS011;51918;51.856;0.150;2022-10-16T09:17:58;5.00;;;1.23;;
65150;SDS011;51918;51.856;0.150;2022-10-16T09:28:26;8.60;;;1.20;;
65150;SDS011;51918;51.856;0.150;2022-10-16T09:38:33;6.57;;;1.40;;
65150;SDS011;51918;51.856;0.150;2022-10-16T09:43:36;6.72;;;1.20;;
65150;SDS011;51918;51.856;0.150;2022-10-16T09:48:44;6.07;;;1.23;;
65150;SDS011;51918;51.856;0.150;2022-10-16T09:53:48;3.83;;;0.98;;
65150;SDS011;51918;51.856;0.150;2022-10-16T09:58:49;6.93;;;1.75;;
65150;SDS011;51918;51.856;0.150;2022-10-16T10:03:55;6.93;;;1.27;;
65150;SDS011;51918;51.856;0.150;2022-10-16T10:08:57;5.30;;;1.23;;
65150;SDS011;51918;51.856;0.150;2022-10-16T10:14:03;5.22;;;1.15;;
65150;SDS011;51918;51.856;0.150;2022-10-16T10:19:09;5.15;;;1.30;;
65150;SDS011;51918;51.856;0.150;2022-10-16T10:24:15;5.25;;;1.08;;
65150;SDS011;51918;51.856;0.150;2022-10-16T10:29:18;2.83;;;1.10;;
65150;SDS011;51918;51.856;0.150;2022-10-16T10:34:35;6.97;;;1.85;;
65150;SDS011;51918;51.856;0.150;2022-10-16T10:39:47;6.78;;;1.00;;
65150;SDS011;51918;51.856;0.150;2022-10-16T10:45:00;3.90;;;0.90;;
65150;SDS011;51918;51.856;0.150;2022-10-16T10:50:18;4.10;;;1.02;;
65150;SDS011;51918;51.856;0.150;2022-10-16T10:55:25;4.20;;;1.23;;
65150;SDS011;51918;51.856;0.150;2022-10-16T11:00:33;3.47;;;0.88;;
65150;SDS011;51918;51.856;0.150;2022-10-16T11:05:45;6.07;;;1.20;;
65150;SDS011;51918;51.856;0.150;2022-10-16T11:10:53;3.72;;;1.10;;
65150;SDS011;51918;51.856;0.150;2022-10-16T11:15:59;5.72;;;0.90;;
65150;SDS011;51918;51.856;0.150;2022-10-16T11:21:08;3.72;;;1.20;;
65150;SDS011;51918;51.856;0.150;2022-10-16T11:26:14;3.75;;;1.10;;
65150;SDS011;51918;51.856;0.150;2022-10-16T11:36:25;5.15;;;1.05;;
65150;SDS011;51918;51.856;0.150;2022-10-16T11:41:34;5.30;;;1.20;;
65150;SDS011;51918;51.856;0.150;2022-10-16T11:46:38;4.75;;;1.13;;
65150;SDS011;51918;51.856;0.150;2022-10-16T11:51:45;8.70;;;1.30;;
65150;SDS011;51918;51.856;0.150;2022-10-16T11:56:55;4.97;;;0.90;;
65150;SDS011;51918;51.856;0.150;2022-10-16T12:02:07;5.75;;;1.15;;
65150;SDS011;51918;51.856;0.150;2022-10-16T12:12:37;5.30;;;1.10;;
65150;SDS011;51918;51.856;0.150;2022-10-16T12:17:39;5.40;;;1.48;;
65150;SDS011;51918;51.856;0.150;2022-10-16T12:22:47;6.05;;;1.17;;
65150;SDS011;51918;51.856;0.150;2022-10-16T12:27:56;4.82;;;1.00;;
65150;SDS011;51918;51.856;0.150;2022-10-16T12:33:00;4.90;;;1.27;;
65150;SDS011;51918;51.856;0.150;2022-10-16T12:38:08;3.05;;;0.90;;
65150;SDS011;51918;51.856;0.150;2022-10-16T12:43:26;6.75;;;1.52;;
65150;SDS011;51918;51.856;0.150;2022-10-16T12:48:39;4.40;;;0.95;;
65150;SDS011;51918;51.856;0.150;2022-10-16T12:53:42;4.35;;;1.20;;
65150;SDS011;51918;51.856;0.150;2022-10-16T12:58:49;5.70;;;1.17;;
65150;SDS011;51918;51.856;0.150;2022-10-16T13:04:00;5.90;;;1.30;;
65150;SDS011;51918;51.856;0.150;2022-10-16T13:09:19;4.07;;;0.90;;
65150;SDS011;51918;51.856;0.150;2022-10-16T13:14:35;6.65;;;1.20;;
65150;SDS011;51918;51.856;0.150;2022-10-16T13:19:49;7.22;;;1.50;;
65150;SDS011;51918;51.856;0.150;2022-10-16T13:25:05;4.22;;;1.20;;
65150;SDS011;51918;51.856;0.150;2022-10-16T13:35:23;5.55;;;1.13;;
65150;SDS011;51918;51.856;0.150;2022-10-16T13:40:26;7.43;;;1.15;;
65150;SDS011;51918;51.856;0.150;2022-10-16T13:45:26;6.30;;;1.50;;
65150;SDS011;51918;51.856;0.150;2022-10-16T13:50:27;4.43;;;0.98;;
65150;SDS011;51918;51.856;0.150;2022-10-16T13:55:29;6.15;;;1.00;;
65150;SDS011;51918;51.856;0.150;2022-10-16T14:00:31;8.27;;;1.50;;
65150;SDS011;51918;51.856;0.150;2022-10-16T14:05:32;6.00;;;1.45;;
65150;SDS011;51918;51.856;0.150;2022-10-16T14:10:34;7.03;;;1.25;;
65150;SDS011;51918;51.856;0.150;2022-10-16T14:15:35;7.15;;;1.60;;
65150;SDS011;51918;51.856;0.150;2022-10-16T14:20:37;8.80;;;1.70;;
65150;SDS011;51918;51.856;0.150;2022-10-16T14:25:39;6.50;;;1.40;;
65150;SDS011;51918;51.856;0.150;2022-10-16T14:30:48;5.28;;;1.30;;
65150;SDS011;51918;51.856;0.150;2022-10-16T14:36:01;5.38;;;1.10;;
65150;SDS011;51918;51.856;0.150;2022-10-16T14:41:06;5.32;;;1.50;;
65150;SDS011;51918;51.856;0.150;2022-10-16T14:46:12;6.30;;;1.30;;
65150;SDS011;51918;51.856;0.150;2022-10-16T14:51:14;6.70;;;1.80;;
65150;SDS011;51918;51.856;0.150;2022-10-16T14:56:18;5.85;;;1.38;;
65150;SDS011;51918;51.856;0.150;2022-10-16T15:01:20;4.72;;;0.88;;
65150;SDS011;51918;51.856;0.150;2022-10-16T15:11:22;7.65;;;1.38;;
65150;SDS011;51918;51.856;0.150;2022-10-16T15:16:23;5.70;;;1.50;;
65150;SDS011;51918;51.856;0.150;2022-10-16T15:26:27;9.02;;;1.67;;
65150;SDS011;51918;51.856;0.150;2022-10-16T15:31:29;15.82;;;2.17;;
65150;SDS011;51918;51.856;0.150;2022-10-16T15:36:30;10.18;;;1.92;;
65150;SDS011;51918;51.856;0.150;2022-10-16T15:41:34;8.38;;;1.67;;
65150;SDS011;51918;51.856;0.150;2022-10-16T15:46:34;8.02;;;1.50;;
65150;SDS011;51918;51.856;0.150;2022-10-16T15:51:36;7.25;;;1.50;;
65150;SDS011;51918;51.856;0.150;2022-10-16T15:56:39;10.07;;;1.75;;
65150;SDS011;51918;51.856;0.150;2022-10-16T16:01:40;8.55;;;1.65;;
65150;SDS011;51918;51.856;0.150;2022-10-16T16:06:40;10.95;;;2.25;;
65150;SDS011;51918;51.856;0.150;2022-10-16T16:11:42;6.25;;;1.92;;
65150;SDS011;51918;51.856;0.150;2022-10-16T16:16:43;7.10;;;1.75;;
65150;SDS011;51918;51.856;0.150;2022-10-16T16:21:43;9.25;;;1.58;;
65150;SDS011;51918;51.856;0.150;2022-10-16T16:26:45;9.07;;;1.92;;
65150;SDS011;51918;51.856;0.150;2022-10-16T16:31:46;8.18;;;1.85;;
65150;SDS011;51918;51.856;0.150;2022-10-16T16:36:47;9.95;;;1.80;;
65150;SDS011;51918;51.856;0.150;2022-10-16T16:41:49;9.20;;;1.83;;
65150;SDS011;51918;51.856;0.150;2022-10-16T16:46:49;9.80;;;1.60;;
65150;SDS011;51918;51.856;0.150;2022-10-16T16:51:52;11.30;;;2.10;;
65150;SDS011;51918;51.856;0.150;2022-10-16T16:56:54;11.43;;;2.13;;
65150;SDS011;51918;51.856;0.150;2022-10-16T17:01:55;7.97;;;1.63;;
65150;SDS011;51918;51.856;0.150;2022-10-16T17:06:55;9.38;;;1.80;;
65150;SDS011;51918;51.856;0.150;2022-10-16T17:11:57;10.85;;;2.55;;
65150;SDS011;51918;51.856;0.150;2022-10-16T17:16:58;11.00;;;1.80;;
65150;SDS011;51918;51.856;0.150;2022-10-16T17:21:58;9.75;;;2.28;;
65150;SDS011;51918;51.856;0.150;2022-10-16T17:27:00;9.35;;;2.78;;
65150;SDS011;51918;51.856;0.150;2022-10-16T17:32:01;7.43;;;2.50;;
65150;SDS011;51918;51.856;0.150;2022-10-16T17:37:02;9.20;;;2.47;;
65150;SDS011;51918;51.856;0.150;2022-10-16T17:47:04;9.90;;;1.85;;
65150;SDS011;51918;51.856;0.150;2022-10-16T17:52:04;11.23;;;2.03;;
65150;SDS011;51918;51.856;0.150;2022-10-16T17:57:07;13.68;;;2.70;;
65150;SDS011;51918;51.856;0.150;2022-10-16T18:02:08;7.25;;;2.20;;
65150;SDS011;51918;51.856;0.150;2022-10-16T18:07:09;7.45;;;2.08;;
65150;SDS011;51918;51.856;0.150;2022-10-16T18:12:10;12.38;;;2.38;;
65150;SDS011;51918;51.856;0.150;2022-10-16T18:17:11;8.10;;;1.90;;
65150;SDS011;51918;51.856;0.150;2022-10-16T18:22:12;11.77;;;1.90;;
65150;SDS011;51918;51.856;0.150;2022-10-16T18:27:14;8.02;;;1.70;;
65150;SDS011;51918;51.856;0.150;2022-10-16T18:32:14;10.23;;;2.40;;
65150;SDS011;51918;51.856;0.150;2022-10-16T18:37:15;7.13;;;1.50;;
65150;SDS011;51918;51.856;0.150;2022-10-16T18:42:17;11.05;;;2.40;;
65150;SDS011;51918;51.856;0.150;2022-10-16T18:47:18;6.55;;;2.22;;
65150;SDS011;51918;51.856;0.150;2022-10-16T18:52:18;10.43;;;2.65;;
65150;SDS011;51918;51.856;0.150;2022-10-16T18:57:20;6.10;;;1.60;;
65150;SDS011;51918;51.856;0.150;2022-10-16T19:02:21;6.60;;;2.42;;
65150;SDS011;51918;51.856;0.150;2022-10-16T19:07:22;6.78;;;2.45;;
65150;SDS011;51918;51.856;0.150;2022-10-16T19:12:24;10.20;;;2.03;;
65150;SDS011;51918;51.856;0.150;2022-10-16T19:17:24;11.07;;;2.45;;
65150;SDS011;51918;51.856;0.150;2022-10-16T19:22:25;7.65;;;1.95;;
65150;SDS011;51918;51.856;0.150;2022-10-16T19:27:27;6.05;;;2.05;;
65150;SDS011;51918;51.856;0.150;2022-10-16T19:32:27;6.35;;;1.85;;
65150;SDS011;51918;51.856;0.150;2022-10-16T19:37:28;6.03;;;1.92;;
65150;SDS011;51918;51.856;0.150;2022-10-16T19:42:30;4.90;;;2.42;;
65150;SDS011;51918;51.856;0.150;2022-10-16T19:47:30;4.55;;;1.88;;
65150;SDS011;51918;51.856;0.150;2022-10-16T19:52:31;7.82;;;2.70;;
65150;SDS011;51918;51.856;0.150;2022-10-16T19:57:33;9.02;;;3.20;;
65150;SDS011;51918;51.856;0.150;2022-10-16T20:02:34;10.30;;;3.53;;
65150;SDS011;51918;51.856;0.150;2022-10-16T20:07:35;10.25;;;2.75;;
65150;SDS011;51918;51.856;0.150;2022-10-16T20:12:37;8.07;;;2.38;;
65150;SDS011;51918;51.856;0.150;2022-10-16T20:17:38;8.32;;;2.95;;
65150;SDS011;51918;51.856;0.150;2022-10-16T20:22:38;8.25;;;2.33;;
65150;SDS011;51918;51.856;0.150;2022-10-16T20:27:40;8.43;;;2.60;;
65150;SDS011;51918;51.856;0.150;2022-10-16T20:32:41;5.45;;;2.63;;
65150;SDS011;51918;51.856;0.150;2022-10-16T20:37:41;8.02;;;2.53;;
65150;SDS011;51918;51.856;0.150;2022-10-16T20:42:44;9.18;;;2.65;;
65150;SDS011;51918;51.856;0.150;2022-10-16T20:47:44;11.15;;;2.78;;
65150;SDS011;51918;51.856;0.150;2022-10-16T20:52:45;8.77;;;3.20;;
65150;SDS011;51918;51.856;0.150;2022-10-16T20:57:47;8.02;;;2.75;;
65150;SDS011;51918;51.856;0.150;2022-10-16T21:02:48;9.48;;;2.50;;
65150;SDS011;51918;51.856;0.150;2022-10-16T21:07:49;9.73;;;2.65;;
65150;SDS011;51918;51.856;0.150;2022-10-16T21:12:52;8.25;;;2.40;;
65150;SDS011;51918;51.856;0.150;2022-10-16T21:17:53;5.40;;;2.10;;
65150;SDS011;51918;51.856;0.150;2022-10-16T21:22:54;7.28;;;2.50;;
65150;SDS011;51918;51.856;0.150;2022-10-16T21:27:56;5.03;;;2.33;;
65150;SDS011;51918;51.856;0.150;2022-10-16T21:32:57;6.03;;;1.90;;
65150;SDS011;51918;51.856;0.150;2022-10-16T21:37:57;8.25;;;1.98;;
65150;SDS011;51918;51.856;0.150;2022-10-16T21:42:59;5.32;;;2.20;;
65150;SDS011;51918;51.856;0.150;2022-10-16T21:48:00;6.28;;;1.90;;
65150;SDS011;51918;51.856;0.150;2022-10-16T21:53:00;6.05;;;1.80;;
65150;SDS011;51918;51.856;0.150;2022-10-16T21:58:02;6.93;;;2.13;;
65150;SDS011;51918;51.856;0.150;2022-10-16T22:03:03;6.13;;;2.00;;
65150;SDS011;51918;51.856;0.150;2022-10-16T22:08:04;5.93;;;2.80;;
65150;SDS011;51918;51.856;0.150;2022-10-16T22:13:06;8.88;;;2.60;;
65150;SDS011;51918;51.856;0.150;2022-10-16T22:18:06;6.03;;;2.72;;
65150;SDS011;51918;51.856;0.150;2022-10-16T22:23:07;7.97;;;2.33;;
65150;SDS011;51918;51.856;0.150;2022-10-16T22:28:09;5.78;;;2.47;;
65150;SDS011;51918;51.856;0.150;2022-10-16T22:33:10;6.72;;;2.50;;
65150;SDS011;51918;51.856;0.150;2022-10-16T22:38:11;4.25;;;2.83;;
65150;SDS011;51918;51.856;0.150;2022-10-16T22:43:13;5.50;;;2.83;;
65150;SDS011;51918;51.856;0.150;2022-10-16T22:48:13;4.70;;;2.15;;
65150;SDS011;51918;51.856;0.150;2022-10-16T22:53:14;4.50;;;2.33;;
65150;SDS011;51918;51.856;0.150;2022-10-16T22:58:16;5.10;;;2.28;;
65150;SDS011;51918;51.856;0.150;2022-10-16T23:03:16;4.18;;;1.95;;
65150;SDS011;51918;51.856;0.150;2022-10-16T23:08:17;3.10;;;2.13;;
65150;SDS011;51918;51.856;0.150;2022-10-16T23:13:19;4.68;;;2.30;;
65150;SDS011;51918;51.856;0.150;2022-10-16T23:18:19;5.35;;;2.50;;
65150;SDS011;51918;51.856;0.150;2022-10-16T23:23:20;8.23;;;3.40;;
65150;SDS011;51918;51.856;0.150;2022-10-16T23:28:22;6.90;;;3.60;;
65150;SDS011;51918;51.856;0.150;2022-10-16T23:33:22;6.22;;;3.80;;
65150;SDS011;51918;51.856;0.150;2022-10-16T23:38:23;11.90;;;4.38;;
65150;SDS011;51918;51.856;0.150;2022-10-16T23:43:25;7.82;;;4.10;;
65150;SDS011;51918;51.856;0.150;2022-10-16T23:48:26;10.20;;;5.00;;
65150;SDS011;51918;51.856;0.150;2022-10-16T23:53:27;6.47;;;3.60;;
65150;SDS011;51918;51.856;0.150;2022-10-16T23:58:29;8.60;;;4.35;;
